sensor_id;sensor_type;location;lat;lon;timestamp;P1;durP1;ratioP1;P2;durP2;ratioP2
19280;SDS011;9774;52.034;5.342;2023-02-28T00:01:08;2.40;;;1.73;;
19280;SDS011;9774;52.034;5.342;2023-02-28T00:03:36;2.15;;;1.50;;
19280;SDS011;9774;52.034;5.342;2023-02-28T00:06:05;2.00;;;1.35;;
19280;SDS011;9774;52.034;5.342;2023-02-28T00:08:34;2.65;;;1.50;;
19280;SDS011;9774;52.034;5.342;2023-02-28T00:11:02;2.17;;;1.27;;
19280;SDS011;9774;52.034;5.342;2023-02-28T00:13:31;2.63;;;1.50;;
19280;SDS011;9774;52.034;5.342;2023-02-28T00:16:00;4.70;;;1.30;;
19280;SDS011;9774;52.034;5.342;2023-02-28T00:18:28;3.58;;;1.42;;
19280;SDS011;9774;52.034;5.342;2023-02-28T00:20:56;2.60;;;1.50;;
19280;SDS011;9774;52.034;5.342;2023-02-28T00:23:24;3.35;;;1.35;;
19280;SDS011;9774;52.034;5.342;2023-02-28T00:25:52;1.83;;;1.10;;
19280;SDS011;9774;52.034;5.342;2023-02-28T00:28:20;2.38;;;1.40;;
19280;SDS011;9774;52.034;5.342;2023-02-28T00:30:48;2.95;;;1.52;;
19280;SDS011;9774;52.034;5.342;2023-02-28T00:33:15;1.58;;;1.33;;
19280;SDS011;9774;52.034;5.342;2023-02-28T00:35:43;1.70;;;1.13;;
19280;SDS011;9774;52.034;5.342;2023-02-28T00:38:11;1.88;;;1.25;;
19280;SDS011;9774;52.034;5.342;2023-02-28T00:40:40;2.58;;;1.50;;
19280;SDS011;9774;52.034;5.342;2023-02-28T00:43:08;2.45;;;1.55;;
19280;SDS011;9774;52.034;5.342;2023-02-28T00:45:35;3.42;;;1.30;;
19280;SDS011;9774;52.034;5.342;2023-02-28T00:48:02;1.50;;;1.13;;
19280;SDS011;9774;52.034;5.342;2023-02-28T00:50:30;2.08;;;1.42;;
19280;SDS011;9774;52.034;5.342;2023-02-28T00:52:57;3.97;;;1.67;;
19280;SDS011;9774;52.034;5.342;2023-02-28T00:55:24;5.38;;;1.70;;
19280;SDS011;9774;52.034;5.342;2023-02-28T00:57:53;3.33;;;1.77;;
19280;SDS011;9774;52.034;5.342;2023-02-28T01:00:20;2.15;;;1.75;;
19280;SDS011;9774;52.034;5.342;2023-02-28T01:02:48;2.63;;;1.58;;
19280;SDS011;9774;52.034;5.342;2023-02-28T01:05:15;3.05;;;2.08;;
19280;SDS011;9774;52.034;5.342;2023-02-28T01:07:42;3.58;;;1.65;;
19280;SDS011;9774;52.034;5.342;2023-02-28T01:10:10;3.08;;;1.50;;
19280;SDS011;9774;52.034;5.342;2023-02-28T01:12:37;2.70;;;1.25;;
19280;SDS011;9774;52.034;5.342;2023-02-28T01:15:06;2.20;;;1.35;;
19280;SDS011;9774;52.034;5.342;2023-02-28T01:17:35;4.00;;;2.03;;
19280;SDS011;9774;52.034;5.342;2023-02-28T01:20:03;3.83;;;2.00;;
19280;SDS011;9774;52.034;5.342;2023-02-28T01:22:31;2.00;;;1.55;;
19280;SDS011;9774;52.034;5.342;2023-02-28T01:25:00;2.33;;;1.50;;
19280;SDS011;9774;52.034;5.342;2023-02-28T01:27:27;2.03;;;1.45;;
19280;SDS011;9774;52.034;5.342;2023-02-28T01:29:54;2.83;;;1.40;;
19280;SDS011;9774;52.034;5.342;2023-02-28T01:32:23;2.92;;;1.63;;
19280;SDS011;9774;52.034;5.342;2023-02-28T01:34:50;2.80;;;1.63;;
19280;SDS011;9774;52.034;5.342;2023-02-28T01:37:17;2.00;;;1.30;;
19280;SDS011;9774;52.034;5.342;2023-02-28T01:39:45;1.55;;;1.38;;
19280;SDS011;9774;52.034;5.342;2023-02-28T01:42:12;2.70;;;1.45;;
19280;SDS011;9774;52.034;5.342;2023-02-28T01:44:56;1.98;;;1.50;;
19280;SDS011;9774;52.034;5.342;2023-02-28T01:47:31;2.15;;;1.48;;
19280;SDS011;9774;52.034;5.342;2023-02-28T01:50:02;2.05;;;1.55;;
19280;SDS011;9774;52.034;5.342;2023-02-28T01:52:33;2.58;;;1.85;;
19280;SDS011;9774;52.034;5.342;2023-02-28T01:55:01;2.45;;;1.23;;
19280;SDS011;9774;52.034;5.342;2023-02-28T01:57:32;2.88;;;1.45;;
19280;SDS011;9774;52.034;5.342;2023-02-28T02:00:05;3.33;;;1.90;;
19280;SDS011;9774;52.034;5.342;2023-02-28T02:02:37;1.75;;;1.30;;
19280;SDS011;9774;52.034;5.342;2023-02-28T02:05:06;2.78;;;1.88;;
19280;SDS011;9774;52.034;5.342;2023-02-28T02:07:35;3.10;;;1.58;;
19280;SDS011;9774;52.034;5.342;2023-02-28T02:10:05;1.92;;;1.33;;
19280;SDS011;9774;52.034;5.342;2023-02-28T02:12:44;2.55;;;1.52;;
19280;SDS011;9774;52.034;5.342;2023-02-28T02:15:28;3.58;;;1.50;;
19280;SDS011;9774;52.034;5.342;2023-02-28T02:18:01;4.18;;;1.80;;
19280;SDS011;9774;52.034;5.342;2023-02-28T02:20:42;3.78;;;1.70;;
19280;SDS011;9774;52.034;5.342;2023-02-28T02:23:40;2.67;;;1.27;;
19280;SDS011;9774;52.034;5.342;2023-02-28T02:26:42;2.03;;;1.40;;
19280;SDS011;9774;52.034;5.342;2023-02-28T02:32:19;4.22;;;1.73;;
19280;SDS011;9774;52.034;5.342;2023-02-28T02:35:13;2.80;;;1.73;;
19280;SDS011;9774;52.034;5.342;2023-02-28T02:37:47;3.30;;;1.90;;
19280;SDS011;9774;52.034;5.342;2023-02-28T02:40:18;3.45;;;2.17;;
19280;SDS011;9774;52.034;5.342;2023-02-28T02:42:49;4.30;;;2.40;;
19280;SDS011;9774;52.034;5.342;2023-02-28T02:45:23;3.50;;;2.45;;
19280;SDS011;9774;52.034;5.342;2023-02-28T02:47:53;2.38;;;1.73;;
19280;SDS011;9774;52.034;5.342;2023-02-28T02:50:26;1.58;;;1.48;;
19280;SDS011;9774;52.034;5.342;2023-02-28T02:52:58;3.35;;;2.10;;
19280;SDS011;9774;52.034;5.342;2023-02-28T02:55:29;2.45;;;1.65;;
19280;SDS011;9774;52.034;5.342;2023-02-28T02:58:01;4.55;;;1.75;;
19280;SDS011;9774;52.034;5.342;2023-02-28T03:00:31;2.67;;;1.75;;
19280;SDS011;9774;52.034;5.342;2023-02-28T03:03:01;3.58;;;1.75;;
19280;SDS011;9774;52.034;5.342;2023-02-28T03:05:34;6.10;;;2.00;;
19280;SDS011;9774;52.034;5.342;2023-02-28T03:08:07;2.15;;;1.52;;
19280;SDS011;9774;52.034;5.342;2023-02-28T03:10:36;3.10;;;1.90;;
19280;SDS011;9774;52.034;5.342;2023-02-28T03:16:23;5.68;;;1.83;;
19280;SDS011;9774;52.034;5.342;2023-02-28T03:19:04;2.67;;;1.60;;
19280;SDS011;9774;52.034;5.342;2023-02-28T03:21:46;2.10;;;1.50;;
19280;SDS011;9774;52.034;5.342;2023-02-28T03:24:22;2.80;;;1.73;;
19280;SDS011;9774;52.034;5.342;2023-02-28T03:26:58;2.30;;;1.60;;
19280;SDS011;9774;52.034;5.342;2023-02-28T03:29:32;3.15;;;1.73;;
19280;SDS011;9774;52.034;5.342;2023-02-28T03:32:03;2.97;;;1.73;;
19280;SDS011;9774;52.034;5.342;2023-02-28T03:34:39;3.75;;;2.05;;
19280;SDS011;9774;52.034;5.342;2023-02-28T03:37:15;2.40;;;1.77;;
19280;SDS011;9774;52.034;5.342;2023-02-28T03:39:46;3.28;;;1.98;;
19280;SDS011;9774;52.034;5.342;2023-02-28T03:42:18;4.53;;;1.80;;
19280;SDS011;9774;52.034;5.342;2023-02-28T03:44:48;2.90;;;1.42;;
19280;SDS011;9774;52.034;5.342;2023-02-28T03:47:21;3.25;;;1.73;;
19280;SDS011;9774;52.034;5.342;2023-02-28T03:49:52;2.40;;;1.60;;
19280;SDS011;9774;52.034;5.342;2023-02-28T03:52:26;3.63;;;1.95;;
19280;SDS011;9774;52.034;5.342;2023-02-28T03:54:58;2.30;;;1.75;;
19280;SDS011;9774;52.034;5.342;2023-02-28T03:57:32;2.05;;;1.85;;
19280;SDS011;9774;52.034;5.342;2023-02-28T04:00:04;2.80;;;2.00;;
19280;SDS011;9774;52.034;5.342;2023-02-28T04:02:34;2.33;;;1.80;;
19280;SDS011;9774;52.034;5.342;2023-02-28T04:05:02;3.53;;;1.95;;
19280;SDS011;9774;52.034;5.342;2023-02-28T04:07:31;2.50;;;1.98;;
19280;SDS011;9774;52.034;5.342;2023-02-28T04:09:59;2.15;;;1.75;;
19280;SDS011;9774;52.034;5.342;2023-02-28T04:12:26;3.97;;;1.75;;
19280;SDS011;9774;52.034;5.342;2023-02-28T04:14:53;2.47;;;1.48;;
19280;SDS011;9774;52.034;5.342;2023-02-28T04:17:20;2.35;;;1.73;;
19280;SDS011;9774;52.034;5.342;2023-02-28T04:19:48;2.80;;;1.73;;
19280;SDS011;9774;52.034;5.342;2023-02-28T04:22:15;3.22;;;1.92;;
19280;SDS011;9774;52.034;5.342;2023-02-28T04:24:44;2.60;;;1.80;;
19280;SDS011;9774;52.034;5.342;2023-02-28T04:27:12;3.85;;;2.00;;
19280;SDS011;9774;52.034;5.342;2023-02-28T04:29:40;2.85;;;2.03;;
19280;SDS011;9774;52.034;5.342;2023-02-28T04:32:09;3.15;;;1.95;;
19280;SDS011;9774;52.034;5.342;2023-02-28T04:34:37;2.38;;;1.70;;
19280;SDS011;9774;52.034;5.342;2023-02-28T04:37:05;2.08;;;1.60;;
19280;SDS011;9774;52.034;5.342;2023-02-28T04:39:34;13.55;;;2.05;;
19280;SDS011;9774;52.034;5.342;2023-02-28T04:42:03;2.20;;;1.77;;
19280;SDS011;9774;52.034;5.342;2023-02-28T04:44:31;2.83;;;1.63;;
19280;SDS011;9774;52.034;5.342;2023-02-28T04:46:58;3.17;;;1.70;;
19280;SDS011;9774;52.034;5.342;2023-02-28T04:49:25;2.47;;;1.42;;
19280;SDS011;9774;52.034;5.342;2023-02-28T04:51:52;3.35;;;2.00;;
19280;SDS011;9774;52.034;5.342;2023-02-28T04:54:20;2.67;;;1.73;;
19280;SDS011;9774;52.034;5.342;2023-02-28T04:56:48;1.98;;;1.17;;
19280;SDS011;9774;52.034;5.342;2023-02-28T04:59:16;2.58;;;1.55;;
19280;SDS011;9774;52.034;5.342;2023-02-28T05:01:45;2.67;;;1.55;;
19280;SDS011;9774;52.034;5.342;2023-02-28T05:04:13;3.22;;;1.80;;
19280;SDS011;9774;52.034;5.342;2023-02-28T05:06:41;2.25;;;1.45;;
19280;SDS011;9774;52.034;5.342;2023-02-28T05:09:08;3.45;;;1.83;;
19280;SDS011;9774;52.034;5.342;2023-02-28T05:11:37;2.47;;;1.52;;
19280;SDS011;9774;52.034;5.342;2023-02-28T05:14:05;1.67;;;1.45;;
19280;SDS011;9774;52.034;5.342;2023-02-28T05:16:36;1.58;;;1.33;;
19280;SDS011;9774;52.034;5.342;2023-02-28T05:19:03;2.13;;;1.33;;
19280;SDS011;9774;52.034;5.342;2023-02-28T05:21:31;2.30;;;1.65;;
19280;SDS011;9774;52.034;5.342;2023-02-28T05:24:00;2.75;;;1.38;;
19280;SDS011;9774;52.034;5.342;2023-02-28T05:26:29;1.85;;;1.42;;
19280;SDS011;9774;52.034;5.342;2023-02-28T05:28:57;2.83;;;1.60;;
19280;SDS011;9774;52.034;5.342;2023-02-28T05:31:24;2.92;;;1.67;;
19280;SDS011;9774;52.034;5.342;2023-02-28T05:33:53;2.08;;;1.45;;
19280;SDS011;9774;52.034;5.342;2023-02-28T05:36:20;2.00;;;1.48;;
19280;SDS011;9774;52.034;5.342;2023-02-28T05:38:48;2.03;;;1.50;;
19280;SDS011;9774;52.034;5.342;2023-02-28T05:41:16;1.85;;;1.65;;
19280;SDS011;9774;52.034;5.342;2023-02-28T05:43:45;1.83;;;1.33;;
19280;SDS011;9774;52.034;5.342;2023-02-28T05:46:13;2.35;;;1.60;;
19280;SDS011;9774;52.034;5.342;2023-02-28T05:48:41;3.88;;;1.52;;
19280;SDS011;9774;52.034;5.342;2023-02-28T05:51:13;3.10;;;1.77;;
19280;SDS011;9774;52.034;5.342;2023-02-28T05:53:41;3.53;;;1.50;;
19280;SDS011;9774;52.034;5.342;2023-02-28T05:56:08;2.22;;;1.33;;
19280;SDS011;9774;52.034;5.342;2023-02-28T05:58:35;4.05;;;1.83;;
19280;SDS011;9774;52.034;5.342;2023-02-28T06:03:47;1.73;;;1.25;;
19280;SDS011;9774;52.034;5.342;2023-02-28T06:06:16;3.03;;;1.52;;
19280;SDS011;9774;52.034;5.342;2023-02-28T06:08:43;1.90;;;1.42;;
19280;SDS011;9774;52.034;5.342;2023-02-28T06:11:13;2.85;;;1.75;;
19280;SDS011;9774;52.034;5.342;2023-02-28T06:13:40;2.55;;;1.40;;
19280;SDS011;9774;52.034;5.342;2023-02-28T06:16:08;1.98;;;1.58;;
19280;SDS011;9774;52.034;5.342;2023-02-28T06:18:37;3.60;;;1.67;;
19280;SDS011;9774;52.034;5.342;2023-02-28T06:21:04;3.25;;;1.60;;
19280;SDS011;9774;52.034;5.342;2023-02-28T06:23:35;3.13;;;1.60;;
19280;SDS011;9774;52.034;5.342;2023-02-28T06:26:02;1.92;;;1.55;;
19280;SDS011;9774;52.034;5.342;2023-02-28T06:28:30;1.90;;;1.50;;
19280;SDS011;9774;52.034;5.342;2023-02-28T06:30:57;1.95;;;1.45;;
19280;SDS011;9774;52.034;5.342;2023-02-28T06:33:25;2.05;;;1.65;;
19280;SDS011;9774;52.034;5.342;2023-02-28T06:35:52;2.13;;;1.38;;
19280;SDS011;9774;52.034;5.342;2023-02-28T06:38:20;2.10;;;1.60;;
19280;SDS011;9774;52.034;5.342;2023-02-28T06:40:53;2.72;;;1.58;;
19280;SDS011;9774;52.034;5.342;2023-02-28T06:43:21;2.33;;;1.25;;
19280;SDS011;9774;52.034;5.342;2023-02-28T06:45:49;2.10;;;1.48;;
19280;SDS011;9774;52.034;5.342;2023-02-28T06:48:19;1.70;;;1.40;;
19280;SDS011;9774;52.034;5.342;2023-02-28T06:50:47;1.98;;;1.40;;
19280;SDS011;9774;52.034;5.342;2023-02-28T06:53:14;2.60;;;1.50;;
19280;SDS011;9774;52.034;5.342;2023-02-28T06:55:41;4.40;;;1.73;;
19280;SDS011;9774;52.034;5.342;2023-02-28T06:58:10;2.20;;;1.60;;
19280;SDS011;9774;52.034;5.342;2023-02-28T07:00:40;3.65;;;1.77;;
19280;SDS011;9774;52.034;5.342;2023-02-28T07:03:08;2.42;;;1.67;;
19280;SDS011;9774;52.034;5.342;2023-02-28T07:05:36;2.13;;;1.80;;
19280;SDS011;9774;52.034;5.342;2023-02-28T07:08:05;3.88;;;2.00;;
19280;SDS011;9774;52.034;5.342;2023-02-28T07:10:32;2.90;;;1.92;;
19280;SDS011;9774;52.034;5.342;2023-02-28T07:13:00;2.60;;;1.70;;
19280;SDS011;9774;52.034;5.342;2023-02-28T07:15:28;3.78;;;2.60;;
19280;SDS011;9774;52.034;5.342;2023-02-28T07:17:55;2.67;;;1.70;;
19280;SDS011;9774;52.034;5.342;2023-02-28T07:20:23;2.58;;;1.52;;
19280;SDS011;9774;52.034;5.342;2023-02-28T07:22:51;1.92;;;1.40;;
19280;SDS011;9774;52.034;5.342;2023-02-28T07:25:21;1.35;;;1.23;;
19280;SDS011;9774;52.034;5.342;2023-02-28T07:27:49;3.00;;;1.45;;
19280;SDS011;9774;52.034;5.342;2023-02-28T07:30:24;2.40;;;1.17;;
19280;SDS011;9774;52.034;5.342;2023-02-28T07:32:53;1.52;;;1.08;;
19280;SDS011;9774;52.034;5.342;2023-02-28T07:35:21;1.55;;;1.27;;
19280;SDS011;9774;52.034;5.342;2023-02-28T07:37:48;1.55;;;1.40;;
19280;SDS011;9774;52.034;5.342;2023-02-28T07:40:15;2.92;;;1.20;;
19280;SDS011;9774;52.034;5.342;2023-02-28T07:42:43;1.70;;;1.08;;
19280;SDS011;9774;52.034;5.342;2023-02-28T07:45:11;2.20;;;1.10;;
19280;SDS011;9774;52.034;5.342;2023-02-28T07:47:38;2.00;;;1.38;;
19280;SDS011;9774;52.034;5.342;2023-02-28T07:50:09;2.55;;;1.23;;
19280;SDS011;9774;52.034;5.342;2023-02-28T07:52:40;4.10;;;1.25;;
19280;SDS011;9774;52.034;5.342;2023-02-28T07:55:09;1.48;;;1.08;;
19280;SDS011;9774;52.034;5.342;2023-02-28T07:57:36;2.10;;;1.45;;
19280;SDS011;9774;52.034;5.342;2023-02-28T08:00:04;1.45;;;1.13;;
19280;SDS011;9774;52.034;5.342;2023-02-28T08:02:34;3.63;;;1.50;;
19280;SDS011;9774;52.034;5.342;2023-02-28T08:05:01;1.23;;;1.08;;
19280;SDS011;9774;52.034;5.342;2023-02-28T08:07:30;2.38;;;1.38;;
19280;SDS011;9774;52.034;5.342;2023-02-28T08:09:58;2.38;;;1.40;;
19280;SDS011;9774;52.034;5.342;2023-02-28T08:12:25;2.00;;;1.10;;
19280;SDS011;9774;52.034;5.342;2023-02-28T08:14:53;2.80;;;1.60;;
19280;SDS011;9774;52.034;5.342;2023-02-28T08:17:20;3.17;;;1.55;;
19280;SDS011;9774;52.034;5.342;2023-02-28T08:19:47;2.60;;;1.52;;
19280;SDS011;9774;52.034;5.342;2023-02-28T08:22:15;1.88;;;1.33;;
19280;SDS011;9774;52.034;5.342;2023-02-28T08:24:43;2.22;;;1.63;;
19280;SDS011;9774;52.034;5.342;2023-02-28T08:27:11;1.70;;;1.45;;
19280;SDS011;9774;52.034;5.342;2023-02-28T08:29:38;1.75;;;1.25;;
19280;SDS011;9774;52.034;5.342;2023-02-28T08:32:06;2.00;;;1.23;;
19280;SDS011;9774;52.034;5.342;2023-02-28T08:34:33;3.45;;;1.55;;
19280;SDS011;9774;52.034;5.342;2023-02-28T08:37:01;2.33;;;1.20;;
19280;SDS011;9774;52.034;5.342;2023-02-28T08:39:28;8.82;;;5.25;;
19280;SDS011;9774;52.034;5.342;2023-02-28T08:41:57;6.78;;;4.70;;
19280;SDS011;9774;52.034;5.342;2023-02-28T08:44:24;3.92;;;2.70;;
19280;SDS011;9774;52.034;5.342;2023-02-28T08:46:52;4.03;;;2.17;;
19280;SDS011;9774;52.034;5.342;2023-02-28T08:49:19;2.83;;;1.90;;
19280;SDS011;9774;52.034;5.342;2023-02-28T08:51:46;3.28;;;1.70;;
19280;SDS011;9774;52.034;5.342;2023-02-28T08:54:14;1.98;;;1.40;;
19280;SDS011;9774;52.034;5.342;2023-02-28T08:56:44;2.45;;;1.58;;
19280;SDS011;9774;52.034;5.342;2023-02-28T08:59:13;2.20;;;1.40;;
19280;SDS011;9774;52.034;5.342;2023-02-28T09:01:41;3.45;;;1.45;;
19280;SDS011;9774;52.034;5.342;2023-02-28T09:04:09;2.10;;;1.60;;
19280;SDS011;9774;52.034;5.342;2023-02-28T09:06:37;2.40;;;1.83;;
19280;SDS011;9774;52.034;5.342;2023-02-28T09:09:04;1.70;;;1.55;;
19280;SDS011;9774;52.034;5.342;2023-02-28T09:11:32;2.15;;;1.45;;
19280;SDS011;9774;52.034;5.342;2023-02-28T09:14:00;2.10;;;1.35;;
19280;SDS011;9774;52.034;5.342;2023-02-28T09:16:30;3.55;;;1.50;;
19280;SDS011;9774;52.034;5.342;2023-02-28T09:18:58;2.42;;;1.70;;
19280;SDS011;9774;52.034;5.342;2023-02-28T09:21:26;2.53;;;1.85;;
19280;SDS011;9774;52.034;5.342;2023-02-28T09:23:54;2.03;;;1.38;;
19280;SDS011;9774;52.034;5.342;2023-02-28T09:26:21;1.98;;;1.30;;
19280;SDS011;9774;52.034;5.342;2023-02-28T09:28:51;1.48;;;0.80;;
19280;SDS011;9774;52.034;5.342;2023-02-28T09:31:20;1.27;;;0.85;;
19280;SDS011;9774;52.034;5.342;2023-02-28T09:33:51;1.50;;;1.23;;
19280;SDS011;9774;52.034;5.342;2023-02-28T09:36:20;2.72;;;1.00;;
19280;SDS011;9774;52.034;5.342;2023-02-28T09:38:48;1.15;;;0.90;;
19280;SDS011;9774;52.034;5.342;2023-02-28T09:41:19;1.88;;;1.05;;
19280;SDS011;9774;52.034;5.342;2023-02-28T09:43:49;1.10;;;0.90;;
19280;SDS011;9774;52.034;5.342;2023-02-28T09:46:23;2.17;;;0.85;;
19280;SDS011;9774;52.034;5.342;2023-02-28T09:48:57;1.38;;;0.90;;
19280;SDS011;9774;52.034;5.342;2023-02-28T09:51:41;3.60;;;0.80;;
19280;SDS011;9774;52.034;5.342;2023-02-28T09:54:15;1.13;;;0.85;;
19280;SDS011;9774;52.034;5.342;2023-02-28T09:56:45;1.52;;;0.90;;
19280;SDS011;9774;52.034;5.342;2023-02-28T09:59:20;2.10;;;1.00;;
19280;SDS011;9774;52.034;5.342;2023-02-28T10:02:00;1.35;;;1.15;;
19280;SDS011;9774;52.034;5.342;2023-02-28T10:04:39;4.22;;;1.50;;
19280;SDS011;9774;52.034;5.342;2023-02-28T10:07:18;1.25;;;1.00;;
19280;SDS011;9774;52.034;5.342;2023-02-28T10:09:53;1.10;;;1.00;;
19280;SDS011;9774;52.034;5.342;2023-02-28T10:12:23;1.42;;;1.00;;
19280;SDS011;9774;52.034;5.342;2023-02-28T10:14:52;1.33;;;1.10;;
19280;SDS011;9774;52.034;5.342;2023-02-28T10:17:23;1.38;;;1.08;;
19280;SDS011;9774;52.034;5.342;2023-02-28T10:19:58;2.03;;;1.00;;
19280;SDS011;9774;52.034;5.342;2023-02-28T10:22:34;1.40;;;1.00;;
19280;SDS011;9774;52.034;5.342;2023-02-28T10:25:15;1.52;;;1.00;;
19280;SDS011;9774;52.034;5.342;2023-02-28T10:27:45;1.42;;;1.10;;
19280;SDS011;9774;52.034;5.342;2023-02-28T10:30:13;1.40;;;1.30;;
19280;SDS011;9774;52.034;5.342;2023-02-28T10:32:49;1.27;;;1.13;;
19280;SDS011;9774;52.034;5.342;2023-02-28T10:35:20;1.10;;;0.90;;
19280;SDS011;9774;52.034;5.342;2023-02-28T10:37:49;1.73;;;0.93;;
19280;SDS011;9774;52.034;5.342;2023-02-28T10:40:26;1.15;;;1.05;;
19280;SDS011;9774;52.034;5.342;2023-02-28T10:42:57;1.15;;;0.70;;
19280;SDS011;9774;52.034;5.342;2023-02-28T10:45:26;0.88;;;0.80;;
19280;SDS011;9774;52.034;5.342;2023-02-28T10:47:56;1.85;;;1.30;;
19280;SDS011;9774;52.034;5.342;2023-02-28T10:50:32;1.42;;;1.10;;
19280;SDS011;9774;52.034;5.342;2023-02-28T10:53:13;1.58;;;0.95;;
19280;SDS011;9774;52.034;5.342;2023-02-28T10:55:55;2.97;;;0.90;;
19280;SDS011;9774;52.034;5.342;2023-02-28T10:58:24;1.00;;;0.90;;
19280;SDS011;9774;52.034;5.342;2023-02-28T11:00:53;2.67;;;1.38;;
19280;SDS011;9774;52.034;5.342;2023-02-28T11:03:24;1.30;;;1.20;;
19280;SDS011;9774;52.034;5.342;2023-02-28T11:05:58;1.73;;;1.10;;
19280;SDS011;9774;52.034;5.342;2023-02-28T11:08:30;1.73;;;1.17;;
19280;SDS011;9774;52.034;5.342;2023-02-28T11:10:59;2.67;;;1.17;;
19280;SDS011;9774;52.034;5.342;2023-02-28T11:13:31;1.20;;;1.05;;
19280;SDS011;9774;52.034;5.342;2023-02-28T11:16:00;1.83;;;1.30;;
19280;SDS011;9774;52.034;5.342;2023-02-28T11:18:32;2.03;;;1.08;;
19280;SDS011;9774;52.034;5.342;2023-02-28T11:21:06;2.05;;;1.08;;
19280;SDS011;9774;52.034;5.342;2023-02-28T11:23:35;2.30;;;1.40;;
19280;SDS011;9774;52.034;5.342;2023-02-28T11:26:06;1.63;;;1.25;;
19280;SDS011;9774;52.034;5.342;2023-02-28T11:28:36;1.77;;;1.25;;
19280;SDS011;9774;52.034;5.342;2023-02-28T11:31:13;1.60;;;1.00;;
19280;SDS011;9774;52.034;5.342;2023-02-28T11:33:45;1.48;;;1.17;;
19280;SDS011;9774;52.034;5.342;2023-02-28T11:36:18;1.63;;;0.98;;
19280;SDS011;9774;52.034;5.342;2023-02-28T11:38:49;1.13;;;0.90;;
19280;SDS011;9774;52.034;5.342;2023-02-28T11:41:22;1.70;;;1.20;;
19280;SDS011;9774;52.034;5.342;2023-02-28T11:44:18;1.25;;;1.02;;
19280;SDS011;9774;52.034;5.342;2023-02-28T11:46:54;2.05;;;1.00;;
19280;SDS011;9774;52.034;5.342;2023-02-28T11:49:30;2.42;;;0.98;;
19280;SDS011;9774;52.034;5.342;2023-02-28T11:52:06;1.58;;;1.13;;
19280;SDS011;9774;52.034;5.342;2023-02-28T11:54:53;2.88;;;1.42;;
19280;SDS011;9774;52.034;5.342;2023-02-28T11:57:36;3.67;;;1.20;;
19280;SDS011;9774;52.034;5.342;2023-02-28T12:00:19;2.55;;;1.75;;
19280;SDS011;9774;52.034;5.342;2023-02-28T12:03:01;2.55;;;1.20;;
19280;SDS011;9774;52.034;5.342;2023-02-28T12:05:38;2.22;;;1.17;;
19280;SDS011;9774;52.034;5.342;2023-02-28T12:08:15;1.40;;;1.20;;
19280;SDS011;9774;52.034;5.342;2023-02-28T12:10:54;1.58;;;0.88;;
19280;SDS011;9774;52.034;5.342;2023-02-28T12:13:32;1.42;;;1.17;;
19280;SDS011;9774;52.034;5.342;2023-02-28T12:16:28;2.63;;;1.38;;
19280;SDS011;9774;52.034;5.342;2023-02-28T12:19:07;1.83;;;1.40;;
19280;SDS011;9774;52.034;5.342;2023-02-28T12:21:46;1.50;;;1.25;;
19280;SDS011;9774;52.034;5.342;2023-02-28T12:24:49;1.45;;;1.20;;
19280;SDS011;9774;52.034;5.342;2023-02-28T12:27:40;0.80;;;0.80;;
19280;SDS011;9774;52.034;5.342;2023-02-28T12:30:13;1.27;;;0.85;;
19280;SDS011;9774;52.034;5.342;2023-02-28T12:32:45;1.67;;;1.10;;
19280;SDS011;9774;52.034;5.342;2023-02-28T12:35:17;1.55;;;1.05;;
19280;SDS011;9774;52.034;5.342;2023-02-28T12:37:50;1.48;;;1.08;;
19280;SDS011;9774;52.034;5.342;2023-02-28T12:40:25;1.15;;;1.05;;
19280;SDS011;9774;52.034;5.342;2023-02-28T12:43:09;1.98;;;1.20;;
19280;SDS011;9774;52.034;5.342;2023-02-28T12:45:40;1.52;;;1.20;;
19280;SDS011;9774;52.034;5.342;2023-02-28T12:48:09;1.23;;;1.00;;
19280;SDS011;9774;52.034;5.342;2023-02-28T12:50:40;2.40;;;1.00;;
19280;SDS011;9774;52.034;5.342;2023-02-28T12:53:09;1.10;;;0.85;;
19280;SDS011;9774;52.034;5.342;2023-02-28T12:55:46;2.72;;;1.30;;
19280;SDS011;9774;52.034;5.342;2023-02-28T12:58:20;1.15;;;0.85;;
19280;SDS011;9774;52.034;5.342;2023-02-28T13:01:04;1.92;;;1.40;;
19280;SDS011;9774;52.034;5.342;2023-02-28T13:03:58;3.00;;;1.20;;
19280;SDS011;9774;52.034;5.342;2023-02-28T13:06:45;1.58;;;1.15;;
19280;SDS011;9774;52.034;5.342;2023-02-28T13:09:26;1.38;;;1.20;;
19280;SDS011;9774;52.034;5.342;2023-02-28T13:11:55;3.22;;;1.27;;
19280;SDS011;9774;52.034;5.342;2023-02-28T13:14:24;2.33;;;1.42;;
19280;SDS011;9774;52.034;5.342;2023-02-28T13:16:59;1.52;;;1.30;;
19280;SDS011;9774;52.034;5.342;2023-02-28T13:19:35;3.03;;;1.50;;
19280;SDS011;9774;52.034;5.342;2023-02-28T13:22:15;3.60;;;2.13;;
19280;SDS011;9774;52.034;5.342;2023-02-28T13:24:46;1.92;;;1.52;;
19280;SDS011;9774;52.034;5.342;2023-02-28T13:33:26;1.60;;;1.10;;
19280;SDS011;9774;52.034;5.342;2023-02-28T13:36:06;1.33;;;1.10;;
19280;SDS011;9774;52.034;5.342;2023-02-28T13:38:49;1.85;;;1.20;;
19280;SDS011;9774;52.034;5.342;2023-02-28T13:44:13;1.20;;;1.10;;
19280;SDS011;9774;52.034;5.342;2023-02-28T13:49:46;2.05;;;1.02;;
19280;SDS011;9774;52.034;5.342;2023-02-28T13:52:15;2.17;;;1.23;;
19280;SDS011;9774;52.034;5.342;2023-02-28T13:54:51;2.88;;;1.45;;
19280;SDS011;9774;52.034;5.342;2023-02-28T13:57:30;2.58;;;1.60;;
19280;SDS011;9774;52.034;5.342;2023-02-28T14:00:15;2.60;;;1.63;;
19280;SDS011;9774;52.034;5.342;2023-02-28T14:02:59;1.85;;;1.35;;
19280;SDS011;9774;52.034;5.342;2023-02-28T14:05:44;1.40;;;0.98;;
19280;SDS011;9774;52.034;5.342;2023-02-28T14:08:13;1.20;;;1.00;;
19280;SDS011;9774;52.034;5.342;2023-02-28T14:10:43;1.05;;;0.95;;
19280;SDS011;9774;52.034;5.342;2023-02-28T14:13:14;1.40;;;1.08;;
19280;SDS011;9774;52.034;5.342;2023-02-28T14:16:10;1.40;;;1.08;;
19280;SDS011;9774;52.034;5.342;2023-02-28T14:18:40;1.33;;;1.23;;
19280;SDS011;9774;52.034;5.342;2023-02-28T14:21:16;1.50;;;1.30;;
19280;SDS011;9774;52.034;5.342;2023-02-28T14:27:00;1.10;;;0.85;;
19280;SDS011;9774;52.034;5.342;2023-02-28T14:32:43;2.00;;;1.27;;
19280;SDS011;9774;52.034;5.342;2023-02-28T14:35:40;1.98;;;1.20;;
19280;SDS011;9774;52.034;5.342;2023-02-28T14:38:17;1.50;;;1.00;;
19280;SDS011;9774;52.034;5.342;2023-02-28T14:40:47;1.58;;;1.20;;
19280;SDS011;9774;52.034;5.342;2023-02-28T14:43:21;1.38;;;1.00;;
19280;SDS011;9774;52.034;5.342;2023-02-28T14:45:50;1.63;;;1.15;;
19280;SDS011;9774;52.034;5.342;2023-02-28T14:48:21;1.20;;;1.08;;
19280;SDS011;9774;52.034;5.342;2023-02-28T14:50:51;1.70;;;1.15;;
19280;SDS011;9774;52.034;5.342;2023-02-28T14:53:20;1.45;;;1.13;;
19280;SDS011;9774;52.034;5.342;2023-02-28T14:55:49;1.45;;;0.98;;
19280;SDS011;9774;52.034;5.342;2023-02-28T14:58:24;1.48;;;0.85;;
19280;SDS011;9774;52.034;5.342;2023-02-28T15:00:54;1.50;;;0.98;;
19280;SDS011;9774;52.034;5.342;2023-02-28T15:03:28;2.53;;;1.42;;
19280;SDS011;9774;52.034;5.342;2023-02-28T15:05:59;1.20;;;1.05;;
19280;SDS011;9774;52.034;5.342;2023-02-28T15:08:27;1.60;;;1.17;;
19280;SDS011;9774;52.034;5.342;2023-02-28T15:10:57;1.50;;;1.38;;
19280;SDS011;9774;52.034;5.342;2023-02-28T15:13:34;1.20;;;1.05;;
19280;SDS011;9774;52.034;5.342;2023-02-28T15:16:03;1.50;;;1.30;;
19280;SDS011;9774;52.034;5.342;2023-02-28T15:18:39;1.40;;;1.05;;
19280;SDS011;9774;52.034;5.342;2023-02-28T15:21:12;1.63;;;1.25;;
19280;SDS011;9774;52.034;5.342;2023-02-28T15:23:42;1.65;;;1.10;;
19280;SDS011;9774;52.034;5.342;2023-02-28T15:26:12;1.70;;;0.93;;
19280;SDS011;9774;52.034;5.342;2023-02-28T15:28:42;1.17;;;0.85;;
19280;SDS011;9774;52.034;5.342;2023-02-28T15:31:19;3.05;;;1.40;;
19280;SDS011;9774;52.034;5.342;2023-02-28T15:33:54;1.30;;;1.20;;
19280;SDS011;9774;52.034;5.342;2023-02-28T15:36:24;1.80;;;1.30;;
19280;SDS011;9774;52.034;5.342;2023-02-28T15:38:54;1.33;;;1.20;;
19280;SDS011;9774;52.034;5.342;2023-02-28T15:41:23;1.25;;;1.05;;
19280;SDS011;9774;52.034;5.342;2023-02-28T15:46:41;2.45;;;2.03;;
19280;SDS011;9774;52.034;5.342;2023-02-28T15:49:20;2.55;;;1.80;;
19280;SDS011;9774;52.034;5.342;2023-02-28T15:51:49;2.38;;;1.70;;
19280;SDS011;9774;52.034;5.342;2023-02-28T15:54:19;1.52;;;1.23;;
19280;SDS011;9774;52.034;5.342;2023-02-28T15:56:49;3.47;;;1.30;;